sensor_id;sensor_type;location;lat;lon;timestamp;P1;durP1;ratioP1;P2;durP2;ratioP2
32186;SDS011;18686;53.084;8.872;2024-01-16T00:00:05;14.13;;;4.07;;
32186;SDS011;18686;53.084;8.872;2024-01-16T00:02:35;8.50;;;2.97;;
32186;SDS011;18686;53.084;8.872;2024-01-16T00:05:04;9.95;;;2.75;;
32186;SDS011;18686;53.084;8.872;2024-01-16T00:07:32;20.20;;;4.22;;
32186;SDS011;18686;53.084;8.872;2024-01-16T00:10:02;16.15;;;5.03;;
32186;SDS011;18686;53.084;8.872;2024-01-16T00:12:33;12.90;;;5.68;;
32186;SDS011;18686;53.084;8.872;2024-01-16T00:15:02;11.50;;;3.78;;
32186;SDS011;18686;53.084;8.872;2024-01-16T00:17:32;11.88;;;3.72;;
32186;SDS011;18686;53.084;8.872;2024-01-16T00:20:00;12.10;;;4.72;;
32186;SDS011;18686;53.084;8.872;2024-01-16T00:22:31;12.18;;;3.70;;
32186;SDS011;18686;53.084;8.872;2024-01-16T00:25:00;9.63;;;3.67;;
32186;SDS011;18686;53.084;8.872;2024-01-16T00:27:28;10.65;;;3.25;;
32186;SDS011;18686;53.084;8.872;2024-01-16T00:29:59;11.05;;;4.10;;
32186;SDS011;18686;53.084;8.872;2024-01-16T00:32:27;14.55;;;4.18;;
32186;SDS011;18686;53.084;8.872;2024-01-16T00:34:55;12.93;;;4.45;;
32186;SDS011;18686;53.084;8.872;2024-01-16T00:37:24;12.88;;;3.95;;
32186;SDS011;18686;53.084;8.872;2024-01-16T00:39:52;10.40;;;3.40;;
32186;SDS011;18686;53.084;8.872;2024-01-16T00:42:21;6.53;;;2.70;;
32186;SDS011;18686;53.084;8.872;2024-01-16T00:44:49;8.30;;;2.63;;
32186;SDS011;18686;53.084;8.872;2024-01-16T00:47:19;8.35;;;3.33;;
32186;SDS011;18686;53.084;8.872;2024-01-16T00:49:47;9.27;;;3.10;;
32186;SDS011;18686;53.084;8.872;2024-01-16T00:52:15;11.60;;;4.05;;
32186;SDS011;18686;53.084;8.872;2024-01-16T00:54:44;13.23;;;4.03;;
32186;SDS011;18686;53.084;8.872;2024-01-16T00:57:12;18.83;;;5.00;;
32186;SDS011;18686;53.084;8.872;2024-01-16T00:59:42;11.63;;;4.20;;
32186;SDS011;18686;53.084;8.872;2024-01-16T01:02:11;20.88;;;6.78;;
32186;SDS011;18686;53.084;8.872;2024-01-16T01:04:41;18.23;;;7.00;;
32186;SDS011;18686;53.084;8.872;2024-01-16T01:07:12;12.38;;;5.05;;
32186;SDS011;18686;53.084;8.872;2024-01-16T01:09:40;12.70;;;4.45;;
32186;SDS011;18686;53.084;8.872;2024-01-16T01:12:09;14.82;;;4.18;;
32186;SDS011;18686;53.084;8.872;2024-01-16T01:14:37;10.75;;;4.25;;
32186;SDS011;18686;53.084;8.872;2024-01-16T01:17:06;10.45;;;4.43;;
32186;SDS011;18686;53.084;8.872;2024-01-16T01:19:34;14.32;;;6.78;;
32186;SDS011;18686;53.084;8.872;2024-01-16T01:22:04;16.60;;;7.13;;
32186;SDS011;18686;53.084;8.872;2024-01-16T01:24:32;15.35;;;6.47;;
32186;SDS011;18686;53.084;8.872;2024-01-16T01:27:01;16.73;;;5.97;;
32186;SDS011;18686;53.084;8.872;2024-01-16T01:29:29;15.65;;;4.85;;
32186;SDS011;18686;53.084;8.872;2024-01-16T01:31:59;12.40;;;3.60;;
32186;SDS011;18686;53.084;8.872;2024-01-16T01:34:27;12.15;;;3.88;;
32186;SDS011;18686;53.084;8.872;2024-01-16T01:36:56;11.32;;;3.45;;
32186;SDS011;18686;53.084;8.872;2024-01-16T01:39:26;12.98;;;3.70;;
32186;SDS011;18686;53.084;8.872;2024-01-16T01:41:54;11.32;;;3.08;;
32186;SDS011;18686;53.084;8.872;2024-01-16T01:44:22;14.43;;;4.07;;
32186;SDS011;18686;53.084;8.872;2024-01-16T01:46:53;13.38;;;4.10;;
32186;SDS011;18686;53.084;8.872;2024-01-16T01:49:22;11.35;;;2.85;;
32186;SDS011;18686;53.084;8.872;2024-01-16T01:51:52;15.45;;;3.17;;
32186;SDS011;18686;53.084;8.872;2024-01-16T01:54:21;9.70;;;2.53;;
32186;SDS011;18686;53.084;8.872;2024-01-16T01:56:52;15.18;;;4.05;;
32186;SDS011;18686;53.084;8.872;2024-01-16T01:59:21;11.82;;;3.83;;
32186;SDS011;18686;53.084;8.872;2024-01-16T02:01:51;13.13;;;3.28;;
32186;SDS011;18686;53.084;8.872;2024-01-16T02:04:20;5.05;;;2.17;;
32186;SDS011;18686;53.084;8.872;2024-01-16T02:06:50;8.90;;;1.60;;
32186;SDS011;18686;53.084;8.872;2024-01-16T02:09:19;9.05;;;2.15;;
32186;SDS011;18686;53.084;8.872;2024-01-16T02:11:48;6.30;;;1.40;;
32186;SDS011;18686;53.084;8.872;2024-01-16T02:14:17;10.30;;;2.33;;
32186;SDS011;18686;53.084;8.872;2024-01-16T02:16:46;10.57;;;1.33;;
32186;SDS011;18686;53.084;8.872;2024-01-16T02:19:14;10.40;;;1.40;;
32186;SDS011;18686;53.084;8.872;2024-01-16T02:21:43;17.08;;;2.08;;
32186;SDS011;18686;53.084;8.872;2024-01-16T02:26:46;10.27;;;1.70;;
32186;SDS011;18686;53.084;8.872;2024-01-16T02:29:15;12.65;;;2.80;;
32186;SDS011;18686;53.084;8.872;2024-01-16T02:31:44;7.70;;;2.00;;
32186;SDS011;18686;53.084;8.872;2024-01-16T02:34:12;7.43;;;1.92;;
32186;SDS011;18686;53.084;8.872;2024-01-16T02:36:41;15.18;;;3.78;;
32186;SDS011;18686;53.084;8.872;2024-01-16T02:39:09;12.85;;;3.72;;
32186;SDS011;18686;53.084;8.872;2024-01-16T02:41:39;14.07;;;3.47;;
32186;SDS011;18686;53.084;8.872;2024-01-16T02:44:07;14.38;;;3.15;;
32186;SDS011;18686;53.084;8.872;2024-01-16T02:46:38;14.07;;;2.92;;
32186;SDS011;18686;53.084;8.872;2024-01-16T02:49:06;14.63;;;2.60;;
32186;SDS011;18686;53.084;8.872;2024-01-16T02:51:35;12.43;;;3.78;;
32186;SDS011;18686;53.084;8.872;2024-01-16T02:54:04;20.50;;;3.80;;
32186;SDS011;18686;53.084;8.872;2024-01-16T02:56:33;17.55;;;4.03;;
32186;SDS011;18686;53.084;8.872;2024-01-16T02:59:03;15.20;;;4.32;;
32186;SDS011;18686;53.084;8.872;2024-01-16T03:01:32;14.80;;;3.70;;
32186;SDS011;18686;53.084;8.872;2024-01-16T03:04:00;15.52;;;4.07;;
32186;SDS011;18686;53.084;8.872;2024-01-16T03:06:29;16.52;;;4.20;;
32186;SDS011;18686;53.084;8.872;2024-01-16T03:08:57;19.98;;;5.78;;
32186;SDS011;18686;53.084;8.872;2024-01-16T03:11:26;14.13;;;4.95;;
32186;SDS011;18686;53.084;8.872;2024-01-16T03:13:58;24.58;;;5.43;;
32186;SDS011;18686;53.084;8.872;2024-01-16T03:16:27;19.80;;;6.07;;
32186;SDS011;18686;53.084;8.872;2024-01-16T03:18:56;16.00;;;5.35;;
32186;SDS011;18686;53.084;8.872;2024-01-16T03:21:25;14.43;;;5.03;;
32186;SDS011;18686;53.084;8.872;2024-01-16T03:23:54;28.77;;;6.13;;
32186;SDS011;18686;53.084;8.872;2024-01-16T03:26:22;23.02;;;5.57;;
32186;SDS011;18686;53.084;8.872;2024-01-16T03:28:50;22.10;;;5.35;;
32186;SDS011;18686;53.084;8.872;2024-01-16T03:31:19;21.38;;;5.10;;
32186;SDS011;18686;53.084;8.872;2024-01-16T03:33:50;26.58;;;6.20;;
32186;SDS011;18686;53.084;8.872;2024-01-16T03:36:18;23.75;;;5.20;;
32186;SDS011;18686;53.084;8.872;2024-01-16T03:38:46;19.58;;;4.65;;
32186;SDS011;18686;53.084;8.872;2024-01-16T03:41:15;21.58;;;4.90;;
32186;SDS011;18686;53.084;8.872;2024-01-16T03:43:43;14.10;;;4.38;;
32186;SDS011;18686;53.084;8.872;2024-01-16T03:46:11;17.63;;;4.18;;
32186;SDS011;18686;53.084;8.872;2024-01-16T03:48:40;17.95;;;3.70;;
32186;SDS011;18686;53.084;8.872;2024-01-16T03:51:10;18.73;;;4.00;;
32186;SDS011;18686;53.084;8.872;2024-01-16T03:53:42;30.80;;;4.38;;
32186;SDS011;18686;53.084;8.872;2024-01-16T03:56:10;22.25;;;4.55;;
32186;SDS011;18686;53.084;8.872;2024-01-16T03:58:39;17.67;;;3.70;;
32186;SDS011;18686;53.084;8.872;2024-01-16T04:01:08;15.77;;;3.33;;
32186;SDS011;18686;53.084;8.872;2024-01-16T04:03:36;24.73;;;3.47;;
32186;SDS011;18686;53.084;8.872;2024-01-16T04:06:15;25.95;;;4.47;;
32186;SDS011;18686;53.084;8.872;2024-01-16T04:08:44;18.90;;;3.10;;
32186;SDS011;18686;53.084;8.872;2024-01-16T04:11:13;10.70;;;2.47;;
32186;SDS011;18686;53.084;8.872;2024-01-16T04:13:41;18.65;;;3.92;;
32186;SDS011;18686;53.084;8.872;2024-01-16T04:16:11;21.83;;;2.80;;
32186;SDS011;18686;53.084;8.872;2024-01-16T04:18:41;22.88;;;3.55;;
32186;SDS011;18686;53.084;8.872;2024-01-16T04:21:10;20.55;;;2.95;;
32186;SDS011;18686;53.084;8.872;2024-01-16T04:23:40;20.10;;;3.65;;
32186;SDS011;18686;53.084;8.872;2024-01-16T04:26:09;23.05;;;3.92;;
32186;SDS011;18686;53.084;8.872;2024-01-16T04:28:38;22.45;;;3.15;;
32186;SDS011;18686;53.084;8.872;2024-01-16T04:31:07;18.50;;;3.28;;
32186;SDS011;18686;53.084;8.872;2024-01-16T04:33:35;22.55;;;3.38;;
32186;SDS011;18686;53.084;8.872;2024-01-16T04:36:03;25.20;;;3.47;;
32186;SDS011;18686;53.084;8.872;2024-01-16T04:38:32;22.55;;;3.22;;
32186;SDS011;18686;53.084;8.872;2024-01-16T04:41:02;24.75;;;3.47;;
32186;SDS011;18686;53.084;8.872;2024-01-16T04:43:31;28.50;;;2.95;;
32186;SDS011;18686;53.084;8.872;2024-01-16T04:45:59;27.85;;;3.40;;
32186;SDS011;18686;53.084;8.872;2024-01-16T04:48:29;20.30;;;3.45;;
32186;SDS011;18686;53.084;8.872;2024-01-16T04:50:58;13.85;;;3.15;;
32186;SDS011;18686;53.084;8.872;2024-01-16T04:53:26;27.40;;;3.45;;
32186;SDS011;18686;53.084;8.872;2024-01-16T04:55:54;22.42;;;3.78;;
32186;SDS011;18686;53.084;8.872;2024-01-16T04:58:24;25.27;;;4.93;;
32186;SDS011;18686;53.084;8.872;2024-01-16T05:00:54;23.10;;;3.83;;
32186;SDS011;18686;53.084;8.872;2024-01-16T05:03:22;25.30;;;3.65;;
32186;SDS011;18686;53.084;8.872;2024-01-16T05:05:50;27.65;;;3.75;;
32186;SDS011;18686;53.084;8.872;2024-01-16T05:08:20;23.83;;;3.80;;
32186;SDS011;18686;53.084;8.872;2024-01-16T05:10:49;31.38;;;4.72;;
32186;SDS011;18686;53.084;8.872;2024-01-16T05:13:17;25.67;;;4.10;;
32186;SDS011;18686;53.084;8.872;2024-01-16T05:15:47;39.28;;;4.38;;
32186;SDS011;18686;53.084;8.872;2024-01-16T05:18:15;23.48;;;4.55;;
32186;SDS011;18686;53.084;8.872;2024-01-16T05:20:43;27.73;;;4.53;;
32186;SDS011;18686;53.084;8.872;2024-01-16T05:23:13;23.52;;;3.67;;
32186;SDS011;18686;53.084;8.872;2024-01-16T05:25:42;28.83;;;4.72;;
32186;SDS011;18686;53.084;8.872;2024-01-16T05:28:11;29.08;;;4.80;;
32186;SDS011;18686;53.084;8.872;2024-01-16T05:30:39;24.27;;;4.22;;
32186;SDS011;18686;53.084;8.872;2024-01-16T05:33:09;39.78;;;5.57;;
32186;SDS011;18686;53.084;8.872;2024-01-16T05:35:37;29.88;;;5.43;;
32186;SDS011;18686;53.084;8.872;2024-01-16T05:38:06;32.15;;;8.13;;
32186;SDS011;18686;53.084;8.872;2024-01-16T05:40:34;25.95;;;5.30;;
32186;SDS011;18686;53.084;8.872;2024-01-16T05:43:02;21.30;;;4.32;;
32186;SDS011;18686;53.084;8.872;2024-01-16T05:45:31;25.13;;;4.78;;
32186;SDS011;18686;53.084;8.872;2024-01-16T05:47:59;23.88;;;4.90;;
32186;SDS011;18686;53.084;8.872;2024-01-16T05:50:29;29.88;;;4.93;;
32186;SDS011;18686;53.084;8.872;2024-01-16T05:52:58;29.20;;;4.55;;
32186;SDS011;18686;53.084;8.872;2024-01-16T05:55:26;41.45;;;5.05;;
32186;SDS011;18686;53.084;8.872;2024-01-16T05:57:55;24.13;;;4.18;;
32186;SDS011;18686;53.084;8.872;2024-01-16T06:00:23;25.67;;;4.00;;
32186;SDS011;18686;53.084;8.872;2024-01-16T06:02:52;33.17;;;6.40;;
32186;SDS011;18686;53.084;8.872;2024-01-16T06:05:21;29.17;;;6.03;;
32186;SDS011;18686;53.084;8.872;2024-01-16T06:07:50;30.88;;;4.78;;
32186;SDS011;18686;53.084;8.872;2024-01-16T06:10:19;23.55;;;5.20;;
32186;SDS011;18686;53.084;8.872;2024-01-16T06:12:47;29.92;;;5.18;;
32186;SDS011;18686;53.084;8.872;2024-01-16T06:15:15;34.60;;;6.15;;
32186;SDS011;18686;53.084;8.872;2024-01-16T06:17:44;32.90;;;5.60;;
32186;SDS011;18686;53.084;8.872;2024-01-16T06:20:12;27.85;;;5.78;;
32186;SDS011;18686;53.084;8.872;2024-01-16T06:22:40;33.17;;;6.30;;
32186;SDS011;18686;53.084;8.872;2024-01-16T06:25:10;31.45;;;6.13;;
32186;SDS011;18686;53.084;8.872;2024-01-16T06:27:38;30.10;;;6.22;;
32186;SDS011;18686;53.084;8.872;2024-01-16T06:30:10;35.70;;;7.78;;
32186;SDS011;18686;53.084;8.872;2024-01-16T06:32:39;31.38;;;7.95;;
32186;SDS011;18686;53.084;8.872;2024-01-16T06:35:08;33.92;;;7.65;;
32186;SDS011;18686;53.084;8.872;2024-01-16T06:37:36;35.40;;;7.05;;
32186;SDS011;18686;53.084;8.872;2024-01-16T06:40:05;35.38;;;7.10;;
32186;SDS011;18686;53.084;8.872;2024-01-16T06:42:35;32.70;;;6.30;;
32186;SDS011;18686;53.084;8.872;2024-01-16T06:45:04;38.50;;;7.70;;
32186;SDS011;18686;53.084;8.872;2024-01-16T06:47:33;33.97;;;7.97;;
32186;SDS011;18686;53.084;8.872;2024-01-16T06:50:01;35.17;;;7.80;;
32186;SDS011;18686;53.084;8.872;2024-01-16T06:52:30;35.22;;;7.85;;
32186;SDS011;18686;53.084;8.872;2024-01-16T06:54:58;29.83;;;8.00;;
32186;SDS011;18686;53.084;8.872;2024-01-16T06:57:26;33.40;;;7.22;;
32186;SDS011;18686;53.084;8.872;2024-01-16T06:59:56;40.45;;;9.38;;
32186;SDS011;18686;53.084;8.872;2024-01-16T07:02:26;40.25;;;8.55;;
32186;SDS011;18686;53.084;8.872;2024-01-16T07:04:56;31.30;;;8.93;;
32186;SDS011;18686;53.084;8.872;2024-01-16T07:07:27;41.22;;;9.65;;
32186;SDS011;18686;53.084;8.872;2024-01-16T07:09:55;34.85;;;8.23;;
32186;SDS011;18686;53.084;8.872;2024-01-16T07:12:23;49.65;;;11.32;;
32186;SDS011;18686;53.084;8.872;2024-01-16T07:14:52;43.45;;;12.20;;
32186;SDS011;18686;53.084;8.872;2024-01-16T07:17:21;28.40;;;9.52;;
32186;SDS011;18686;53.084;8.872;2024-01-16T07:19:50;41.60;;;10.98;;
32186;SDS011;18686;53.084;8.872;2024-01-16T07:22:18;40.47;;;11.70;;
32186;SDS011;18686;53.084;8.872;2024-01-16T07:24:46;43.65;;;12.05;;
32186;SDS011;18686;53.084;8.872;2024-01-16T07:27:14;41.13;;;10.75;;
32186;SDS011;18686;53.084;8.872;2024-01-16T07:29:43;51.22;;;11.48;;
32186;SDS011;18686;53.084;8.872;2024-01-16T07:32:12;38.33;;;10.68;;
32186;SDS011;18686;53.084;8.872;2024-01-16T07:34:41;38.00;;;10.30;;
32186;SDS011;18686;53.084;8.872;2024-01-16T07:37:10;47.47;;;10.60;;
32186;SDS011;18686;53.084;8.872;2024-01-16T07:39:39;46.50;;;10.13;;
32186;SDS011;18686;53.084;8.872;2024-01-16T07:42:07;39.63;;;9.43;;
32186;SDS011;18686;53.084;8.872;2024-01-16T07:44:36;37.53;;;8.60;;
32186;SDS011;18686;53.084;8.872;2024-01-16T07:47:04;37.30;;;8.30;;
32186;SDS011;18686;53.084;8.872;2024-01-16T07:49:33;38.17;;;8.23;;
32186;SDS011;18686;53.084;8.872;2024-01-16T07:52:03;41.55;;;7.75;;
32186;SDS011;18686;53.084;8.872;2024-01-16T07:54:31;27.48;;;6.50;;
32186;SDS011;18686;53.084;8.872;2024-01-16T07:57:00;29.45;;;6.18;;
32186;SDS011;18686;53.084;8.872;2024-01-16T07:59:28;40.05;;;5.88;;
32186;SDS011;18686;53.084;8.872;2024-01-16T08:01:56;30.40;;;5.82;;
32186;SDS011;18686;53.084;8.872;2024-01-16T08:04:25;33.22;;;6.25;;
32186;SDS011;18686;53.084;8.872;2024-01-16T08:06:53;27.50;;;5.35;;
32186;SDS011;18686;53.084;8.872;2024-01-16T08:09:22;37.47;;;7.28;;
32186;SDS011;18686;53.084;8.872;2024-01-16T08:11:51;28.58;;;5.78;;
32186;SDS011;18686;53.084;8.872;2024-01-16T08:14:20;35.63;;;6.00;;
32186;SDS011;18686;53.084;8.872;2024-01-16T08:16:48;31.63;;;5.80;;
32186;SDS011;18686;53.084;8.872;2024-01-16T08:19:16;28.25;;;5.53;;
32186;SDS011;18686;53.084;8.872;2024-01-16T08:21:45;29.27;;;4.68;;
32186;SDS011;18686;53.084;8.872;2024-01-16T08:24:14;34.63;;;6.10;;
32186;SDS011;18686;53.084;8.872;2024-01-16T08:26:43;32.20;;;5.25;;
32186;SDS011;18686;53.084;8.872;2024-01-16T08:29:12;36.55;;;5.72;;
32186;SDS011;18686;53.084;8.872;2024-01-16T08:31:40;37.40;;;6.53;;
32186;SDS011;18686;53.084;8.872;2024-01-16T08:34:08;29.33;;;5.60;;
32186;SDS011;18686;53.084;8.872;2024-01-16T08:36:37;29.80;;;5.95;;
32186;SDS011;18686;53.084;8.872;2024-01-16T08:39:06;32.35;;;6.93;;
32186;SDS011;18686;53.084;8.872;2024-01-16T08:41:34;32.53;;;7.75;;
32186;SDS011;18686;53.084;8.872;2024-01-16T08:44:05;38.47;;;8.15;;
32186;SDS011;18686;53.084;8.872;2024-01-16T08:46:34;37.08;;;8.18;;
32186;SDS011;18686;53.084;8.872;2024-01-16T08:49:03;51.20;;;10.02;;
32186;SDS011;18686;53.084;8.872;2024-01-16T08:51:31;37.35;;;8.88;;
32186;SDS011;18686;53.084;8.872;2024-01-16T08:53:59;46.72;;;11.90;;
32186;SDS011;18686;53.084;8.872;2024-01-16T08:56:28;53.88;;;13.30;;
32186;SDS011;18686;53.084;8.872;2024-01-16T08:58:57;56.92;;;12.75;;
32186;SDS011;18686;53.084;8.872;2024-01-16T09:01:26;48.72;;;13.20;;
32186;SDS011;18686;53.084;8.872;2024-01-16T09:03:54;46.33;;;13.93;;
32186;SDS011;18686;53.084;8.872;2024-01-16T09:06:23;48.72;;;12.13;;
32186;SDS011;18686;53.084;8.872;2024-01-16T09:08:51;38.30;;;11.52;;
32186;SDS011;18686;53.084;8.872;2024-01-16T09:11:20;51.75;;;13.73;;
32186;SDS011;18686;53.084;8.872;2024-01-16T09:13:48;35.78;;;11.45;;
32186;SDS011;18686;53.084;8.872;2024-01-16T09:16:16;43.40;;;12.13;;
32186;SDS011;18686;53.084;8.872;2024-01-16T09:18:46;39.88;;;10.98;;
32186;SDS011;18686;53.084;8.872;2024-01-16T09:21:14;38.38;;;11.65;;
32186;SDS011;18686;53.084;8.872;2024-01-16T09:23:42;30.42;;;10.32;;
32186;SDS011;18686;53.084;8.872;2024-01-16T09:26:11;24.08;;;8.05;;
32186;SDS011;18686;53.084;8.872;2024-01-16T09:28:39;30.65;;;8.52;;
32186;SDS011;18686;53.084;8.872;2024-01-16T09:31:09;36.83;;;9.02;;
32186;SDS011;18686;53.084;8.872;2024-01-16T09:33:37;35.15;;;9.75;;
32186;SDS011;18686;53.084;8.872;2024-01-16T09:36:07;31.60;;;9.27;;
32186;SDS011;18686;53.084;8.872;2024-01-16T09:38:35;31.85;;;8.90;;
32186;SDS011;18686;53.084;8.872;2024-01-16T09:41:04;28.85;;;8.68;;
32186;SDS011;18686;53.084;8.872;2024-01-16T09:43:32;26.58;;;8.40;;
32186;SDS011;18686;53.084;8.872;2024-01-16T09:46:01;25.20;;;8.05;;
32186;SDS011;18686;53.084;8.872;2024-01-16T09:48:34;21.23;;;7.22;;
32186;SDS011;18686;53.084;8.872;2024-01-16T09:51:03;18.13;;;6.90;;
32186;SDS011;18686;53.084;8.872;2024-01-16T09:53:33;17.45;;;5.45;;
32186;SDS011;18686;53.084;8.872;2024-01-16T09:56:04;20.30;;;6.53;;
32186;SDS011;18686;53.084;8.872;2024-01-16T09:58:38;16.80;;;5.32;;
32186;SDS011;18686;53.084;8.872;2024-01-16T10:01:06;20.38;;;5.53;;
32186;SDS011;18686;53.084;8.872;2024-01-16T10:03:35;15.30;;;4.80;;
32186;SDS011;18686;53.084;8.872;2024-01-16T10:06:04;16.05;;;4.93;;
32186;SDS011;18686;53.084;8.872;2024-01-16T10:08:35;15.00;;;5.18;;
32186;SDS011;18686;53.084;8.872;2024-01-16T10:11:05;14.40;;;4.68;;
32186;SDS011;18686;53.084;8.872;2024-01-16T10:13:33;17.80;;;4.28;;
32186;SDS011;18686;53.084;8.872;2024-01-16T10:16:02;17.00;;;4.10;;
32186;SDS011;18686;53.084;8.872;2024-01-16T10:18:31;10.25;;;3.67;;
32186;SDS011;18686;53.084;8.872;2024-01-16T10:21:00;12.48;;;3.83;;
32186;SDS011;18686;53.084;8.872;2024-01-16T10:23:29;13.80;;;4.35;;
32186;SDS011;18686;53.084;8.872;2024-01-16T10:26:07;11.18;;;3.75;;
32186;SDS011;18686;53.084;8.872;2024-01-16T10:28:36;8.02;;;3.13;;
32186;SDS011;18686;53.084;8.872;2024-01-16T10:31:05;9.68;;;3.03;;
32186;SDS011;18686;53.084;8.872;2024-01-16T10:33:36;5.95;;;3.22;;
32186;SDS011;18686;53.084;8.872;2024-01-16T10:36:10;8.10;;;3.78;;
32186;SDS011;18686;53.084;8.872;2024-01-16T10:38:39;9.85;;;3.70;;
32186;SDS011;18686;53.084;8.872;2024-01-16T10:41:10;8.55;;;4.00;;
32186;SDS011;18686;53.084;8.872;2024-01-16T10:43:41;11.95;;;3.95;;
32186;SDS011;18686;53.084;8.872;2024-01-16T10:46:09;10.50;;;4.00;;
32186;SDS011;18686;53.084;8.872;2024-01-16T10:48:40;10.43;;;4.40;;
32186;SDS011;18686;53.084;8.872;2024-01-16T10:51:10;14.55;;;4.43;;
32186;SDS011;18686;53.084;8.872;2024-01-16T10:53:41;8.23;;;4.43;;
32186;SDS011;18686;53.084;8.872;2024-01-16T10:56:12;9.68;;;4.32;;
32186;SDS011;18686;53.084;8.872;2024-01-16T10:58:42;9.50;;;4.63;;
32186;SDS011;18686;53.084;8.872;2024-01-16T11:01:11;11.85;;;4.35;;
32186;SDS011;18686;53.084;8.872;2024-01-16T11:03:44;9.63;;;4.65;;
32186;SDS011;18686;53.084;8.872;2024-01-16T11:06:15;9.77;;;4.50;;
32186;SDS011;18686;53.084;8.872;2024-01-16T11:08:46;7.93;;;4.80;;
32186;SDS011;18686;53.084;8.872;2024-01-16T11:11:16;11.52;;;4.53;;
32186;SDS011;18686;53.084;8.872;2024-01-16T11:13:46;11.77;;;5.50;;
32186;SDS011;18686;53.084;8.872;2024-01-16T11:16:15;9.57;;;5.35;;
32186;SDS011;18686;53.084;8.872;2024-01-16T11:18:43;10.75;;;5.32;;
32186;SDS011;18686;53.084;8.872;2024-01-16T11:21:12;11.98;;;6.75;;
32186;SDS011;18686;53.084;8.872;2024-01-16T11:23:44;13.20;;;7.00;;
32186;SDS011;18686;53.084;8.872;2024-01-16T11:26:26;12.27;;;7.00;;
32186;SDS011;18686;53.084;8.872;2024-01-16T11:28:58;18.83;;;8.88;;
32186;SDS011;18686;53.084;8.872;2024-01-16T11:31:27;13.20;;;9.02;;
32186;SDS011;18686;53.084;8.872;2024-01-16T11:33:57;13.65;;;9.35;;
32186;SDS011;18686;53.084;8.872;2024-01-16T11:36:43;16.25;;;11.02;;
32186;SDS011;18686;53.084;8.872;2024-01-16T11:39:21;18.58;;;10.57;;
32186;SDS011;18686;53.084;8.872;2024-01-16T11:41:54;17.35;;;12.65;;
32186;SDS011;18686;53.084;8.872;2024-01-16T11:44:36;18.45;;;10.13;;
32186;SDS011;18686;53.084;8.872;2024-01-16T11:47:06;18.08;;;11.88;;
32186;SDS011;18686;53.084;8.872;2024-01-16T11:49:35;20.80;;;12.73;;
32186;SDS011;18686;53.084;8.872;2024-01-16T11:52:04;21.20;;;13.18;;
32186;SDS011;18686;53.084;8.872;2024-01-16T11:54:33;20.20;;;12.02;;
32186;SDS011;18686;53.084;8.872;2024-01-16T11:57:08;15.15;;;10.07;;
32186;SDS011;18686;53.084;8.872;2024-01-16T11:59:58;21.23;;;9.50;;
32186;SDS011;18686;53.084;8.872;2024-01-16T12:02:48;22.75;;;8.60;;
32186;SDS011;18686;53.084;8.872;2024-01-16T12:05:19;21.45;;;8.13;;
32186;SDS011;18686;53.084;8.872;2024-01-16T12:07:48;17.67;;;8.10;;
32186;SDS011;18686;53.084;8.872;2024-01-16T12:10:17;16.90;;;8.30;;
32186;SDS011;18686;53.084;8.872;2024-01-16T12:12:48;15.75;;;7.40;;
32186;SDS011;18686;53.084;8.872;2024-01-16T12:15:18;27.00;;;8.40;;
32186;SDS011;18686;53.084;8.872;2024-01-16T12:17:56;13.90;;;7.75;;
32186;SDS011;18686;53.084;8.872;2024-01-16T12:20:28;16.58;;;10.35;;
32186;SDS011;18686;53.084;8.872;2024-01-16T12:22:58;21.17;;;11.77;;
32186;SDS011;18686;53.084;8.872;2024-01-16T12:25:28;24.98;;;13.13;;
32186;SDS011;18686;53.084;8.872;2024-01-16T12:28:19;23.35;;;13.18;;
32186;SDS011;18686;53.084;8.872;2024-01-16T12:30:58;23.73;;;15.13;;
32186;SDS011;18686;53.084;8.872;2024-01-16T12:33:29;19.33;;;13.18;;
32186;SDS011;18686;53.084;8.872;2024-01-16T12:36:02;26.27;;;13.43;;
32186;SDS011;18686;53.084;8.872;2024-01-16T12:38:32;29.20;;;13.95;;
32186;SDS011;18686;53.084;8.872;2024-01-16T12:41:02;30.15;;;15.60;;
32186;SDS011;18686;53.084;8.872;2024-01-16T12:43:36;22.35;;;13.30;;
32186;SDS011;18686;53.084;8.872;2024-01-16T12:46:05;25.10;;;14.20;;
32186;SDS011;18686;53.084;8.872;2024-01-16T12:48:34;22.77;;;13.45;;
32186;SDS011;18686;53.084;8.872;2024-01-16T12:51:08;25.13;;;13.57;;
32186;SDS011;18686;53.084;8.872;2024-01-16T12:53:39;21.15;;;12.18;;
32186;SDS011;18686;53.084;8.872;2024-01-16T12:56:08;20.48;;;11.23;;
32186;SDS011;18686;53.084;8.872;2024-01-16T12:58:38;22.33;;;10.25;;
32186;SDS011;18686;53.084;8.872;2024-01-16T13:01:22;21.13;;;10.45;;
32186;SDS011;18686;53.084;8.872;2024-01-16T13:04:05;21.23;;;9.05;;
32186;SDS011;18686;53.084;8.872;2024-01-16T13:06:34;20.80;;;9.82;;
32186;SDS011;18686;53.084;8.872;2024-01-16T13:09:07;15.82;;;8.10;;
32186;SDS011;18686;53.084;8.872;2024-01-16T13:11:46;14.85;;;7.70;;
32186;SDS011;18686;53.084;8.872;2024-01-16T13:14:17;16.35;;;6.85;;
32186;SDS011;18686;53.084;8.872;2024-01-16T13:16:47;18.17;;;7.85;;
32186;SDS011;18686;53.084;8.872;2024-01-16T13:19:17;13.75;;;7.53;;
32186;SDS011;18686;53.084;8.872;2024-01-16T13:21:46;17.58;;;7.63;;
32186;SDS011;18686;53.084;8.872;2024-01-16T13:24:15;14.90;;;7.95;;
32186;SDS011;18686;53.084;8.872;2024-01-16T13:26:48;19.60;;;8.43;;
32186;SDS011;18686;53.084;8.872;2024-01-16T13:29:18;18.98;;;8.13;;
32186;SDS011;18686;53.084;8.872;2024-01-16T13:31:47;20.25;;;9.43;;
32186;SDS011;18686;53.084;8.872;2024-01-16T13:34:15;20.10;;;8.45;;
32186;SDS011;18686;53.084;8.872;2024-01-16T13:36:47;19.58;;;8.60;;
32186;SDS011;18686;53.084;8.872;2024-01-16T13:39:36;17.38;;;8.63;;
32186;SDS011;18686;53.084;8.872;2024-01-16T13:42:05;17.10;;;7.45;;
32186;SDS011;18686;53.084;8.872;2024-01-16T13:44:35;17.30;;;9.93;;
32186;SDS011;18686;53.084;8.872;2024-01-16T13:47:03;24.05;;;9.52;;
32186;SDS011;18686;53.084;8.872;2024-01-16T13:49:39;15.55;;;9.35;;
32186;SDS011;18686;53.084;8.872;2024-01-16T13:52:08;20.02;;;10.15;;
32186;SDS011;18686;53.084;8.872;2024-01-16T13:54:37;20.33;;;9.52;;
32186;SDS011;18686;53.084;8.872;2024-01-16T13:57:06;23.48;;;10.10;;
32186;SDS011;18686;53.084;8.872;2024-01-16T13:59:40;22.55;;;9.90;;
32186;SDS011;18686;53.084;8.872;2024-01-16T14:02:08;20.83;;;10.80;;
32186;SDS011;18686;53.084;8.872;2024-01-16T14:04:36;18.90;;;9.77;;
32186;SDS011;18686;53.084;8.872;2024-01-16T14:07:05;32.20;;;12.55;;
32186;SDS011;18686;53.084;8.872;2024-01-16T14:09:39;21.77;;;10.68;;
32186;SDS011;18686;53.084;8.872;2024-01-16T14:12:11;20.70;;;11.55;;
32186;SDS011;18686;53.084;8.872;2024-01-16T14:14:42;20.33;;;10.80;;
32186;SDS011;18686;53.084;8.872;2024-01-16T14:17:10;17.83;;;10.45;;
32186;SDS011;18686;53.084;8.872;2024-01-16T14:19:40;21.00;;;11.15;;
32186;SDS011;18686;53.084;8.872;2024-01-16T14:22:09;22.42;;;11.45;;
32186;SDS011;18686;53.084;8.872;2024-01-16T14:24:37;24.05;;;11.60;;
32186;SDS011;18686;53.084;8.872;2024-01-16T14:27:05;22.48;;;11.52;;
32186;SDS011;18686;53.084;8.872;2024-01-16T14:29:36;21.42;;;11.00;;
32186;SDS011;18686;53.084;8.872;2024-01-16T14:32:08;21.25;;;10.02;;
32186;SDS011;18686;53.084;8.872;2024-01-16T14:34:37;22.38;;;9.57;;
32186;SDS011;18686;53.084;8.872;2024-01-16T14:37:05;22.33;;;10.52;;
32186;SDS011;18686;53.084;8.872;2024-01-16T14:39:33;19.95;;;9.13;;
32186;SDS011;18686;53.084;8.872;2024-01-16T14:42:03;23.23;;;10.00;;
32186;SDS011;18686;53.084;8.872;2024-01-16T14:44:32;15.50;;;9.25;;
32186;SDS011;18686;53.084;8.872;2024-01-16T14:47:02;15.32;;;9.07;;
32186;SDS011;18686;53.084;8.872;2024-01-16T14:49:32;20.17;;;10.00;;